Time;durP1;ratioP1;P1;durP2;ratioP2;P2;SDS_P1;SDS_P2;PMS_P1;PMS_P2;Temp;Humidity;BMP_temperature;BMP_pressure;BME280_temperature;BME280_humidity;BME280_pressure;Samples;Min_cycle;Max_cycle;Signal;HPM_P1;HPM_P2
2023/07/20 00:02:18;;;;;;;6.50;3.30;;;;;;;20.29;61.86;96026.41;5090747;28;20040;-72
2023/07/20 00:04:44;;;;;;;6.03;3.33;;;;;;;20.28;62.61;96027.59;5090216;28;20047;-72
2023/07/20 00:07:10;;;;;;;5.07;3.38;;;;;;;20.32;62.33;96023.66;5089805;28;20047;-72
2023/07/20 00:09:37;;;;;;;5.55;3.08;;;;;;;20.20;62.55;96035.09;5090079;28;20040;-72
2023/07/20 00:12:04;;;;;;;6.85;3.30;;;;;;;20.27;62.80;96048.13;5095362;28;20495;-72
2023/07/20 00:14:32;;;;;;;10.95;3.83;;;;;;;20.20;62.99;96045.31;5098381;27;20048;-72
2023/07/20 00:16:59;;;;;;;6.32;3.40;;;;;;;20.14;63.23;96039.38;5090147;28;20040;-72
2023/07/20 00:19:27;;;;;;;7.18;3.50;;;;;;;20.06;64.31;96044.09;5093465;28;20423;-72
2023/07/20 00:21:54;;;;;;;9.27;3.70;;;;;;;19.85;65.21;96038.44;5102723;28;20072;-72
2023/07/20 00:24:21;;;;;;;5.72;3.20;;;;;;;19.98;65.09;96042.44;5097426;27;20491;-72
2023/07/20 00:26:48;;;;;;;7.22;3.55;;;;;;;19.87;66.60;96040.81;5089874;28;20036;-72
2023/07/20 00:29:14;;;;;;;4.72;3.08;;;;;;;19.97;66.15;96042.84;5089508;28;20048;-72
2023/07/20 00:31:43;;;;;;;8.38;3.30;;;;;;;20.01;66.11;96040.91;5089793;28;20054;-72
2023/07/20 00:34:09;;;;;;;7.75;3.00;;;;;;;20.06;66.23;96048.81;5098299;27;20514;-73
2023/07/20 00:36:36;;;;;;;5.43;3.00;;;;;;;20.05;66.06;96045.28;5110370;27;20044;-73
2023/07/20 00:39:03;;;;;;;5.65;2.80;;;;;;;20.11;66.07;96062.28;5109510;27;20066;-72
2023/07/20 00:41:29;;;;;;;6.30;3.28;;;;;;;20.10;66.08;96051.59;5110639;27;20055;-72
2023/07/20 00:43:56;;;;;;;5.78;3.08;;;;;;;20.04;65.45;96056.69;5094667;28;20063;-72
2023/07/20 00:46:24;;;;;;;8.25;3.67;;;;;;;20.10;65.92;96051.59;5095392;27;20073;-72
2023/07/20 00:48:53;;;;;;;5.40;2.90;;;;;;;20.17;66.04;96054.41;5095568;28;20040;-73
2023/07/20 00:51:19;;;;;;;5.88;3.05;;;;;;;20.19;65.66;96047.28;5102030;27;20569;-72
2023/07/20 00:53:46;;;;;;;9.85;3.53;;;;;;;20.18;65.31;96036.63;5099224;28;20046;-72
2023/07/20 00:56:13;;;;;;;5.63;3.50;;;;;;;20.21;65.46;96039.44;5093968;28;20048;-72
2023/07/20 00:58:39;;;;;;;6.63;2.70;;;;;;;20.30;64.96;96042.59;5110375;27;20049;-72
2023/07/20 01:01:06;;;;;;;8.38;3.08;;;;;;;20.30;64.54;96044.56;5116257;27;20055;-73
2023/07/20 01:03:32;;;;;;;7.32;3.33;;;;;;;20.17;64.28;96046.13;5114420;27;20040;-72
2023/07/20 01:06:10;;;;;;;4.25;2.90;;;;;;;20.24;64.43;96040.59;5105768;27;20050;-73
2023/07/20 01:08:44;;;;;;;4.32;2.92;;;;;;;20.28;64.04;96039.44;5098811;28;20048;-72
2023/07/20 01:11:17;;;;;;;5.68;3.20;;;;;;;20.26;64.29;96046.56;5105977;28;20506;-72
2023/07/20 01:13:44;;;;;;;5.72;2.72;;;;;;;20.22;64.48;96052.06;5109336;27;20044;-72
2023/07/20 01:16:11;;;;;;;9.32;2.97;;;;;;;20.22;64.18;96051.28;5100988;27;20048;-72
2023/07/20 01:18:38;;;;;;;4.80;3.15;;;;;;;20.19;63.92;96040.97;5099173;28;20036;-73
2023/07/20 01:21:10;;;;;;;5.28;3.10;;;;;;;20.16;64.11;96047.31;5119147;27;20101;-73
2023/07/20 01:24:00;;;;;;;7.13;2.97;;;;;;;20.15;64.14;96046.50;5115626;27;20131;-72
2023/07/20 01:26:47;;;;;;;5.30;2.85;;;;;;;20.13;64.06;96037.00;5116854;27;20044;-72
2023/07/20 01:29:42;;;;;;;5.60;2.90;;;;;;;20.12;63.74;96041.75;5096533;28;20056;-72
2023/07/20 01:32:11;;;;;;;6.40;3.20;;;;;;;20.17;64.24;96043.34;5100963;27;20795;-72
2023/07/20 01:34:39;;;;;;;6.00;3.05;;;;;;;20.20;64.57;96039.78;5093122;28;20036;-72
2023/07/20 01:37:07;;;;;;;8.40;3.03;;;;;;;20.19;64.86;96043.75;5092825;28;20514;-73
2023/07/20 01:39:34;;;;;;;6.18;2.83;;;;;;;20.22;64.89;96035.47;5105688;27;20039;-72
2023/07/20 01:42:01;;;;;;;6.88;2.83;;;;;;;20.22;65.01;96040.22;5097173;27;20055;-72
2023/07/20 01:44:28;;;;;;;7.13;3.00;;;;;;;20.16;64.05;96044.53;5103869;27;20624;-72
2023/07/20 01:46:55;;;;;;;5.38;2.85;;;;;;;20.16;63.95;96042.56;5093093;28;20051;-72
2023/07/20 01:49:23;;;;;;;4.78;2.60;;;;;;;20.12;63.79;96046.47;5092394;28;20056;-72
2023/07/20 01:51:49;;;;;;;5.88;3.13;;;;;;;20.14;64.13;96046.88;5107941;27;20051;-72
2023/07/20 01:54:16;;;;;;;5.38;2.72;;;;;;;20.16;64.41;96048.09;5096899;27;20048;-72
2023/07/20 01:56:42;;;;;;;3.78;2.60;;;;;;;20.18;63.86;96050.47;5106684;28;20047;-72
2023/07/20 01:59:08;;;;;;;4.45;2.67;;;;;;;20.20;63.56;96053.63;5104177;27;20532;-72
2023/07/20 02:01:35;;;;;;;4.75;2.90;;;;;;;20.18;64.04;96051.25;5112925;27;20048;-72
2023/07/20 02:04:01;;;;;;;4.93;2.88;;;;;;;20.18;63.42;96053.22;5104878;27;20040;-73
2023/07/20 02:06:29;;;;;;;5.30;2.70;;;;;;;20.20;63.17;96050.84;5103985;28;20064;-72
2023/07/20 02:08:56;;;;;;;3.67;2.50;;;;;;;20.25;63.69;96051.28;5106650;27;20399;-72
2023/07/20 02:11:22;;;;;;;4.57;2.60;;;;;;;20.25;63.20;96044.94;5099364;28;20056;-72
2023/07/20 02:13:49;;;;;;;5.35;2.80;;;;;;;20.21;63.60;96033.91;5092606;28;20047;-72
2023/07/20 02:16:15;;;;;;;3.70;2.40;;;;;;;20.22;63.03;96045.75;5099738;27;20044;-71
2023/07/20 02:18:42;;;;;;;8.77;3.13;;;;;;;20.22;63.14;96049.28;5092611;28;20036;-72
2023/07/20 02:21:08;;;;;;;9.48;3.00;;;;;;;20.17;62.54;96049.66;5091861;28;20388;-73
2023/07/20 02:23:36;;;;;;;5.50;2.78;;;;;;;20.16;62.77;96053.63;5104551;27;20043;-73
2023/07/20 02:26:02;;;;;;;4.95;2.92;;;;;;;20.17;62.29;96057.97;5095891;28;20040;-72
2023/07/20 02:28:29;;;;;;;4.93;2.50;;;;;;;20.14;61.82;96049.63;5111558;27;20054;-72
2023/07/20 02:30:55;;;;;;;7.45;2.50;;;;;;;20.10;61.86;96054.34;5112546;27;20047;-72
2023/07/20 02:33:22;;;;;;;6.00;2.97;;;;;;;19.93;62.95;96059.41;5111951;27;20054;-72
2023/07/20 02:35:48;;;;;;;7.03;2.78;;;;;;;19.80;61.91;96058.16;5112371;27;20534;-72
2023/07/20 02:38:15;;;;;;;4.32;2.72;;;;;;;19.87;62.65;96060.94;5111890;27;20091;-72
2023/07/20 02:40:43;;;;;;;4.25;2.35;;;;;;;19.88;62.40;96054.22;5107385;27;20044;-72
2023/07/20 02:43:10;;;;;;;5.30;2.40;;;;;;;19.75;61.98;96052.97;5091404;28;20051;-72
2023/07/20 02:45:40;;;;;;;8.15;2.67;;;;;;;19.86;61.77;96056.59;5091979;28;20044;-72
2023/07/20 02:48:07;;;;;;;6.95;2.63;;;;;;;19.87;61.52;96058.19;5091382;28;20044;-72
2023/07/20 02:50:34;;;;;;;6.28;2.50;;;;;;;19.76;61.19;96073.91;5091839;28;20509;-72
2023/07/20 02:53:01;;;;;;;7.15;2.90;;;;;;;19.84;61.20;96085.78;5106598;28;20044;-72
2023/07/20 02:55:27;;;;;;;5.40;2.45;;;;;;;19.75;61.09;96077.84;5096884;28;20040;-72
2023/07/20 02:57:55;;;;;;;6.13;2.30;;;;;;;19.71;60.80;96054.91;5097870;28;20055;-72
2023/07/20 03:00:23;;;;;;;4.65;2.25;;;;;;;19.87;60.35;96060.94;5111261;27;20096;-72
2023/07/20 03:02:52;;;;;;;4.63;2.10;;;;;;;19.99;59.94;96065.34;5098518;27;20506;-72
2023/07/20 03:05:18;;;;;;;3.40;2.00;;;;;;;20.00;58.40;96067.75;5100720;28;20131;-72
2023/07/20 03:07:45;;;;;;;2.97;1.80;;;;;;;20.01;59.02;96063.81;5091544;28;20043;-73
2023/07/20 03:10:12;;;;;;;4.30;2.00;;;;;;;20.03;59.14;96078.00;5090768;28;20495;-72
2023/07/20 03:12:39;;;;;;;5.47;2.10;;;;;;;20.05;59.28;96074.88;5100953;28;20063;-72
2023/07/20 03:15:08;;;;;;;5.65;2.17;;;;;;;19.97;59.12;96078.78;5100497;27;20048;-72
2023/07/20 03:17:35;;;;;;;4.07;2.13;;;;;;;19.99;59.19;96077.22;5111512;27;20044;-72
2023/07/20 03:20:02;;;;;;;6.93;2.08;;;;;;;19.74;59.36;96084.56;5109950;28;20040;-72
2023/07/20 03:22:29;;;;;;;5.65;1.80;;;;;;;19.78;59.13;96083.41;5108461;27;20039;-72
2023/07/20 03:24:55;;;;;;;3.70;1.88;;;;;;;19.89;58.48;96077.94;5091216;28;20051;-72
2023/07/20 03:27:22;;;;;;;5.50;2.05;;;;;;;20.00;58.17;96089.84;5094121;28;20053;-72
2023/07/20 03:29:49;;;;;;;6.00;1.80;;;;;;;20.05;57.74;96094.22;5091144;28;20075;-72
2023/07/20 03:32:16;;;;;;;6.15;2.28;;;;;;;20.01;58.21;96088.69;5096825;27;20044;-72
2023/07/20 03:34:44;;;;;;;4.07;2.17;;;;;;;20.06;57.46;96093.06;5111375;27;20398;-72
2023/07/20 03:37:10;;;;;;;4.72;1.65;;;;;;;20.06;58.21;96088.31;5103293;27;20059;-73
2023/07/20 03:39:37;;;;;;;3.83;1.60;;;;;;;19.92;57.74;96095.72;5090863;28;20336;-73
2023/07/20 03:42:04;;;;;;;5.32;1.85;;;;;;;19.94;58.38;96101.63;5102747;27;20035;-73
2023/07/20 03:44:31;;;;;;;4.78;1.88;;;;;;;19.85;58.70;96101.22;5100873;28;20046;-72
2023/07/20 03:46:57;;;;;;;7.03;1.80;;;;;;;19.91;58.72;96102.44;5105492;28;20043;-72
2023/07/20 03:49:25;;;;;;;4.47;1.58;;;;;;;20.02;58.76;96097.75;5110530;27;20039;-72
2023/07/20 03:51:51;;;;;;;5.32;1.98;;;;;;;19.99;57.79;96104.88;5106523;27;20044;-72
2023/07/20 03:54:18;;;;;;;2.95;1.70;;;;;;;20.00;58.47;96116.72;5091778;28;20139;-72
2023/07/20 03:56:45;;;;;;;6.32;1.80;;;;;;;19.89;58.10;96121.34;5105862;28;20043;-73
2023/07/20 03:59:11;;;;;;;4.47;1.70;;;;;;;19.85;58.31;96124.09;5094938;28;20051;-73
2023/07/20 04:01:39;;;;;;;3.63;1.80;;;;;;;19.79;57.74;96114.59;5097404;28;20059;-72
2023/07/20 04:04:08;;;;;;;5.13;1.67;;;;;;;19.66;56.74;96113.28;5102558;27;20055;-73
2023/07/20 04:06:36;;;;;;;3.53;1.55;;;;;;;19.74;56.75;96112.97;5110331;28;20039;-72
2023/07/20 04:09:04;;;;;;;5.28;1.48;;;;;;;19.83;56.82;96112.63;5096187;28;20044;-74
2023/07/20 04:11:31;;;;;;;4.00;1.70;;;;;;;19.86;56.55;96116.59;5090989;28;20075;-72
2023/07/20 04:13:57;;;;;;;5.00;1.70;;;;;;;19.87;55.91;96118.19;5099242;27;20048;-72
2023/07/20 04:16:24;;;;;;;2.65;1.58;;;;;;;19.86;55.70;96122.91;5108028;28;20040;-73
2023/07/20 04:18:50;;;;;;;5.28;1.50;;;;;;;19.81;56.20;96114.97;5093126;28;20040;-72
2023/07/20 04:21:17;;;;;;;2.85;1.40;;;;;;;19.83;56.38;96123.66;5090339;28;20415;-73
2023/07/20 04:23:45;;;;;;;2.22;1.63;;;;;;;19.74;55.70;96114.94;5091003;28;20036;-73
2023/07/20 04:26:12;;;;;;;3.55;1.80;;;;;;;19.77;55.78;96114.94;5091666;28;20055;-73
2023/07/20 04:28:39;;;;;;;2.67;1.30;;;;;;;19.80;55.68;96118.94;5102586;27;20051;-73
2023/07/20 04:31:13;;;;;;;3.63;1.60;;;;;;;19.75;56.08;96113.75;5112213;27;20105;-73
2023/07/20 04:33:40;;;;;;;4.65;1.50;;;;;;;19.73;56.41;96125.19;5101550;27;20040;-73
2023/07/20 04:36:07;;;;;;;4.68;1.70;;;;;;;19.76;55.99;96118.09;5098195;27;20051;-73
2023/07/20 04:38:35;;;;;;;4.88;2.00;;;;;;;19.80;54.86;96124.47;5103490;28;20051;-73
2023/07/20 04:41:03;;;;;;;2.53;1.60;;;;;;;19.80;55.02;96125.25;5093117;28;20081;-74
2023/07/20 04:43:30;;;;;;;3.22;1.52;;;;;;;19.82;53.84;96130.38;5110119;27;20042;-73
2023/07/20 04:45:56;;;;;;;6.45;1.75;;;;;;;19.74;53.61;96126.78;5093929;28;20063;-72
2023/07/20 04:48:23;;;;;;;4.50;1.60;;;;;;;19.75;53.64;96130.34;5092860;28;20048;-73
2023/07/20 04:50:49;;;;;;;5.38;1.73;;;;;;;19.76;54.72;96134.69;5096384;28;20040;-72
2023/07/20 04:53:16;;;;;;;5.20;1.70;;;;;;;19.69;54.49;96140.16;5105542;28;20048;-74
2023/07/20 04:55:50;;;;;;;6.15;1.75;;;;;;;19.66;54.55;96147.22;5102803;27;20062;-73
2023/07/20 04:58:18;;;;;;;3.58;1.45;;;;;;;19.62;53.76;96145.59;5097654;27;20047;-72
2023/07/20 05:00:45;;;;;;;4.82;1.52;;;;;;;19.65;53.75;96148.41;5110318;28;20050;-73
2023/07/20 05:03:11;;;;;;;3.83;1.73;;;;;;;19.53;53.47;96149.47;5095272;28;20044;-73
2023/07/20 05:05:38;;;;;;;2.63;1.70;;;;;;;19.58;54.20;96147.53;5097851;28;20074;-73
2023/07/20 05:08:05;;;;;;;5.28;1.80;;;;;;;19.60;53.91;96148.75;5104770;27;20036;-73
2023/07/20 05:10:32;;;;;;;4.47;1.58;;;;;;;19.65;53.12;96153.13;5102138;28;20036;-73
2023/07/20 05:12:58;;;;;;;4.93;1.70;;;;;;;19.45;53.73;96147.81;5114919;27;20075;-73
2023/07/20 05:15:26;;;;;;;3.22;1.63;;;;;;;19.35;53.05;96142.97;5109408;27;20061;-73
2023/07/20 05:17:53;;;;;;;4.35;1.80;;;;;;;19.34;53.68;96146.91;5103502;28;20043;-73
2023/07/20 05:20:20;;;;;;;2.50;1.60;;;;;;;19.37;53.43;96153.63;5105657;27;20107;-73
2023/07/20 05:22:46;;;;;;;7.13;1.77;;;;;;;19.38;52.58;96153.25;5103275;27;20036;-73
2023/07/20 05:25:13;;;;;;;4.53;1.73;;;;;;;19.42;52.61;96156.03;5108852;27;20043;-72
2023/07/20 05:27:40;;;;;;;13.30;1.80;;;;;;;19.23;53.59;96159.81;5102999;27;20051;-72
2023/07/20 05:30:08;;;;;;;3.70;1.63;;;;;;;19.14;53.87;96164.84;5089529;28;20067;-74
2023/07/20 05:32:35;;;;;;;3.75;1.85;;;;;;;19.01;53.67;96162.34;5089567;28;20414;-73
2023/07/20 05:35:02;;;;;;;4.70;1.77;;;;;;;18.91;53.67;96157.50;5097397;27;20040;-73
2023/07/20 05:37:29;;;;;;;3.42;1.75;;;;;;;19.17;52.87;96153.84;5106234;27;20042;-73
2023/07/20 05:39:56;;;;;;;3.78;1.63;;;;;;;18.98;53.76;96162.31;5108523;27;20540;-74
2023/07/20 05:42:22;;;;;;;5.95;2.13;;;;;;;19.01;54.29;96164.31;5100262;27;20126;-74
2023/07/20 05:44:49;;;;;;;5.97;1.77;;;;;;;18.93;54.91;96166.19;5098014;27;20051;-74
2023/07/20 05:47:16;;;;;;;4.60;1.73;;;;;;;18.84;53.96;96162.91;5092998;28;20077;-73
2023/07/20 05:49:44;;;;;;;5.00;1.73;;;;;;;18.77;54.18;96162.84;5093290;28;20040;-74
2023/07/20 05:52:10;;;;;;;3.17;1.50;;;;;;;19.03;53.36;96171.03;5099027;28;20497;-74
2023/07/20 05:54:37;;;;;;;3.10;1.60;;;;;;;18.80;53.99;96164.88;5095883;28;20045;-74
2023/07/20 05:57:04;;;;;;;5.25;1.80;;;;;;;18.83;54.43;96166.84;5093004;28;20036;-74
2023/07/20 05:59:31;;;;;;;4.20;2.15;;;;;;;18.80;54.35;96167.63;5093324;28;20055;-73
2023/07/20 06:01:58;;;;;;;3.92;1.80;;;;;;;18.85;54.07;96164.53;5093689;28;20123;-73
2023/07/20 06:04:24;;;;;;;6.47;1.92;;;;;;;18.86;55.22;96171.63;5093491;28;20059;-73
2023/07/20 06:06:52;;;;;;;4.25;1.90;;;;;;;18.89;54.57;96170.06;5104872;27;20082;-73
2023/07/20 06:09:18;;;;;;;4.50;1.95;;;;;;;18.90;55.67;96178.00;5105898;27;20052;-73
2023/07/20 06:11:45;;;;;;;3.90;1.70;;;;;;;18.90;55.86;96177.19;5095915;28;20089;-73
2023/07/20 06:14:12;;;;;;;4.15;1.98;;;;;;;19.07;55.98;96176.59;5098618;27;20043;-73
2023/07/20 06:16:38;;;;;;;3.50;1.70;;;;;;;18.99;55.69;96170.19;5113878;27;20479;-73
2023/07/20 06:19:05;;;;;;;3.88;1.80;;;;;;;19.23;56.02;96173.63;5112805;27;20036;-74
2023/07/20 06:21:31;;;;;;;6.60;1.83;;;;;;;19.04;55.89;96180.91;5113308;27;20052;-74
2023/07/20 06:23:59;;;;;;;4.07;1.98;;;;;;;19.17;56.35;96177.91;5113111;27;20043;-73
2023/07/20 06:26:26;;;;;;;6.80;1.95;;;;;;;19.08;55.20;96177.41;5096219;27;20048;-73
2023/07/20 06:28:52;;;;;;;3.22;1.80;;;;;;;19.09;55.19;96177.00;5095716;28;20039;-73
2023/07/20 06:31:19;;;;;;;7.30;1.92;;;;;;;19.32;54.81;96168.59;5105520;28;20055;-73
2023/07/20 06:33:45;;;;;;;6.40;2.05;;;;;;;19.26;55.47;96170.09;5092643;28;20047;-74
2023/07/20 06:36:12;;;;;;;7.97;2.15;;;;;;;19.16;56.11;96176.28;5097934;27;20062;-74
2023/07/20 06:38:38;;;;;;;3.78;2.00;;;;;;;19.17;54.79;96177.91;5103533;28;20044;-73
2023/07/20 06:41:06;;;;;;;2.17;1.60;;;;;;;19.04;55.09;96180.09;5091941;28;20040;-74
2023/07/20 06:43:33;;;;;;;7.00;1.83;;;;;;;19.18;54.06;96176.72;5101090;28;20070;-73
2023/07/20 06:45:59;;;;;;;5.35;1.90;;;;;;;19.25;54.78;96171.25;5092369;28;20055;-73
2023/07/20 06:48:26;;;;;;;4.28;1.88;;;;;;;19.03;54.98;96176.56;5099440;28;20039;-73
2023/07/20 06:50:53;;;;;;;6.13;2.05;;;;;;;19.03;54.72;96173.78;5092578;28;20529;-73
2023/07/20 06:53:20;;;;;;;4.95;2.08;;;;;;;19.13;55.75;96171.53;5091825;28;20047;-73
2023/07/20 06:55:46;;;;;;;4.93;2.00;;;;;;;19.24;55.72;96172.44;5092262;28;20044;-73
2023/07/20 06:58:14;;;;;;;4.60;1.80;;;;;;;19.25;55.46;96171.25;5092180;28;20054;-74
2023/07/20 07:00:41;;;;;;;5.32;2.10;;;;;;;19.32;54.66;96173.31;5109293;27;20048;-73
2023/07/20 07:03:07;;;;;;;3.33;2.05;;;;;;;19.40;54.23;96174.97;5100086;27;20044;-75
2023/07/20 07:05:37;;;;;;;3.08;1.50;;;;;;;19.58;52.77;96172.41;5101113;28;20097;-74
2023/07/20 07:08:05;;;;;;;5.90;2.10;;;;;;;19.65;54.81;96173.28;5112334;27;20445;-73
2023/07/20 07:10:31;;;;;;;5.50;1.85;;;;;;;19.75;54.70;96174.53;5104258;28;20044;-73
2023/07/20 07:12:58;;;;;;;4.10;1.88;;;;;;;19.92;50.79;96176.66;5095328;28;20036;-73
2023/07/20 07:15:26;;;;;;;5.53;1.80;;;;;;;19.98;52.38;96168.78;5112554;27;20122;-74
2023/07/20 07:17:52;;;;;;;4.88;1.75;;;;;;;20.05;51.62;96177.94;5104445;27;20131;-73
2023/07/20 07:20:19;;;;;;;5.70;1.92;;;;;;;20.15;52.17;96178.38;5112172;27;20055;-73
2023/07/20 07:22:46;;;;;;;3.88;1.80;;;;;;;20.17;49.60;96170.50;5093801;28;20043;-73
2023/07/20 07:25:12;;;;;;;4.15;1.50;;;;;;;20.03;49.83;96172.00;5091263;28;20051;-73
2023/07/20 07:27:39;;;;;;;4.88;2.00;;;;;;;20.12;50.08;96168.13;5100373;28;20096;-73
2023/07/20 07:30:07;;;;;;;3.15;1.60;;;;;;;20.29;48.13;96184.00;5103591;27;20418;-73
2023/07/20 07:32:34;;;;;;;4.30;1.27;;;;;;;20.41;47.07;96180.13;5095449;28;20118;-73
2023/07/20 07:35:01;;;;;;;4.47;1.50;;;;;;;20.32;49.04;96183.25;5111716;27;20036;-73
2023/07/20 07:37:27;;;;;;;2.30;1.30;;;;;;;20.29;46.77;96184.00;5111613;27;20040;-74
2023/07/20 07:39:54;;;;;;;3.33;1.63;;;;;;;19.99;48.68;96179.47;5092227;28;20039;-74
2023/07/20 07:42:20;;;;;;;4.15;1.73;;;;;;;20.14;48.60;96183.13;5105325;27;20047;-73
2023/07/20 07:44:47;;;;;;;6.78;1.98;;;;;;;19.96;49.79;96177.47;5092922;28;20047;-73
2023/07/20 07:47:14;;;;;;;3.45;1.75;;;;;;;20.03;49.46;96177.50;5090436;28;20047;-74
2023/07/20 07:49:42;;;;;;;3.50;1.80;;;;;;;20.11;49.67;96180.34;5090943;28;20043;-73
2023/07/20 07:52:08;;;;;;;4.63;1.80;;;;;;;20.34;48.42;96183.66;5090430;28;20542;-74
2023/07/20 07:54:35;;;;;;;5.18;1.50;;;;;;;20.08;47.77;96190.97;5099636;28;20050;-73
2023/07/20 07:57:01;;;;;;;4.85;1.77;;;;;;;20.22;47.44;96189.50;5092941;28;20449;-74
2023/07/20 07:59:28;;;;;;;3.33;1.50;;;;;;;20.13;48.01;96189.03;5091467;28;20036;-73
2023/07/20 08:01:54;;;;;;;8.65;2.17;;;;;;;20.15;49.07;96187.50;5099524;28;20043;-73
2023/07/20 08:04:21;;;;;;;5.13;1.45;;;;;;;20.12;47.48;96190.22;5105365;27;20092;-73
2023/07/20 08:06:49;;;;;;;4.82;1.52;;;;;;;20.17;47.03;96185.13;5103174;27;20510;-73
2023/07/20 08:09:15;;;;;;;5.05;1.60;;;;;;;20.39;46.89;96188.81;5101568;28;20050;-73
2023/07/20 08:11:42;;;;;;;3.88;1.70;;;;;;;20.49;47.80;96190.88;5102023;28;20040;-73
2023/07/20 08:14:08;;;;;;;3.35;1.25;;;;;;;20.42;46.10;96193.59;5089994;28;20044;-73
2023/07/20 08:16:35;;;;;;;3.78;1.50;;;;;;;20.51;46.42;96191.28;5090502;28;20044;-73
2023/07/20 08:19:02;;;;;;;4.45;1.55;;;;;;;20.73;45.83;96192.22;5101505;27;20043;-74
2023/07/20 08:21:28;;;;;;;4.53;1.50;;;;;;;20.85;44.80;96199.38;5094866;28;20040;-74
2023/07/20 08:23:56;;;;;;;6.35;1.65;;;;;;;20.90;45.32;96196.25;5106967;27;20039;-73
2023/07/20 08:26:24;;;;;;;3.22;1.23;;;;;;;21.04;44.99;96185.22;5089446;28;20398;-73
2023/07/20 08:28:50;;;;;;;5.82;1.50;;;;;;;20.94;43.75;96185.97;5091268;28;20624;-73
2023/07/20 08:31:17;;;;;;;2.55;1.60;;;;;;;21.19;45.56;96190.78;5105053;28;20040;-73
2023/07/20 08:33:43;;;;;;;3.97;1.40;;;;;;;21.31;45.98;96188.50;5106881;27;20039;-74
2023/07/20 08:36:10;;;;;;;6.57;1.50;;;;;;;21.56;47.69;96183.03;5089633;28;20048;-74
2023/07/20 08:38:36;;;;;;;5.78;1.65;;;;;;;22.00;43.35;96187.41;5090120;28;20036;-74
2023/07/20 08:41:04;;;;;;;10.30;2.10;;;;;;;22.16;44.79;96186.22;5106082;28;20040;-74
2023/07/20 08:43:32;;;;;;;5.95;1.48;;;;;;;22.22;43.26;96190.97;5091055;28;20040;-73
2023/07/20 08:45:59;;;;;;;7.35;1.90;;;;;;;21.98;41.92;96186.19;5101970;27;20054;-74
2023/07/20 08:48:25;;;;;;;4.20;1.65;;;;;;;22.05;41.57;96191.75;5109938;27;20112;-73
2023/07/20 08:50:53;;;;;;;4.03;1.50;;;;;;;21.69;42.28;96182.63;5109760;27;20100;-74
2023/07/20 08:53:20;;;;;;;3.97;1.50;;;;;;;21.97;43.45;96179.84;5109839;27;20052;-74
2023/07/20 08:55:50;;;;;;;3.90;1.67;;;;;;;22.05;43.48;96187.00;5110181;27;20063;-74
2023/07/20 08:58:18;;;;;;;2.90;1.20;;;;;;;22.07;44.17;96192.13;5109754;27;20044;-73
2023/07/20 09:00:45;;;;;;;6.78;1.98;;;;;;;21.97;43.68;96184.63;5109977;27;20047;-73
2023/07/20 09:03:12;;;;;;;2.67;1.40;;;;;;;22.03;43.42;96189.38;5109515;27;20126;-74
2023/07/20 09:05:40;;;;;;;4.30;1.45;;;;;;;21.93;44.45;96190.19;5110072;27;20047;-74
2023/07/20 09:08:06;;;;;;;2.92;1.50;;;;;;;22.01;42.06;96190.94;5108547;27;20056;-74
2023/07/20 09:10:33;;;;;;;3.95;1.25;;;;;;;21.94;41.52;96194.53;5106252;28;20478;-73
2023/07/20 09:13:00;;;;;;;3.80;1.50;;;;;;;21.82;41.23;96186.59;5091575;28;20047;-73
2023/07/20 09:15:29;;;;;;;3.42;1.60;;;;;;;21.78;42.64;96194.13;5101338;27;20047;-73
2023/07/20 09:17:56;;;;;;;3.03;1.52;;;;;;;21.88;41.80;96191.38;5110074;27;20035;-73
2023/07/20 09:20:23;;;;;;;3.65;1.80;;;;;;;21.57;41.57;96187.38;5110315;27;20056;-73
2023/07/20 09:22:50;;;;;;;2.00;1.27;;;;;;;21.56;42.63;96194.09;5114131;27;20035;-73
2023/07/20 09:25:19;;;;;;;8.45;1.98;;;;;;;21.49;43.75;96194.06;5109127;27;20040;-73
2023/07/20 09:27:47;;;;;;;2.90;1.40;;;;;;;21.40;42.07;96193.66;5093335;28;20529;-72
2023/07/20 09:30:15;;;;;;;3.85;1.55;;;;;;;21.50;43.83;96190.13;5105236;27;20039;-73
2023/07/20 09:32:44;;;;;;;6.53;1.50;;;;;;;21.42;44.03;96193.28;5114035;28;20086;-75
2023/07/20 09:35:15;;;;;;;7.07;1.42;;;;;;;21.20;44.26;96181.34;5113024;27;20435;-73
2023/07/20 09:37:47;;;;;;;3.58;1.60;;;;;;;21.29;44.01;96187.25;5097548;28;20617;-73
2023/07/20 09:40:16;;;;;;;7.07;1.90;;;;;;;21.43;44.86;96184.56;5092687;28;20036;-74
2023/07/20 09:42:43;;;;;;;5.20;1.85;;;;;;;21.63;44.10;96180.25;5101576;27;20047;-73
2023/07/20 09:45:11;;;;;;;8.05;1.77;;;;;;;21.69;44.39;96180.66;5104242;27;20035;-74
2023/07/20 09:47:38;;;;;;;5.53;2.10;;;;;;;21.82;47.17;96168.00;5113511;27;20047;-73
2023/07/20 09:50:10;;;;;;;4.65;1.42;;;;;;;21.84;43.70;96170.38;5112882;27;20046;-74
2023/07/20 09:52:39;;;;;;;7.65;2.22;;;;;;;21.90;42.40;96179.88;5113241;27;20040;-74
2023/07/20 09:55:07;;;;;;;10.45;1.80;;;;;;;22.07;43.76;96170.75;5102272;27;20056;-74
2023/07/20 09:57:34;;;;;;;7.07;2.08;;;;;;;21.96;43.14;96172.72;5093231;28;20044;-74
2023/07/20 10:00:01;;;;;;;6.20;1.90;;;;;;;21.75;42.55;96167.19;5101298;28;20055;-74
2023/07/20 10:02:33;;;;;;;7.32;1.90;;;;;;;21.92;44.74;96168.38;5106776;27;20088;-74
2023/07/20 10:05:04;;;;;;;6.10;2.20;;;;;;;21.94;43.53;96175.13;5095215;28;20101;-74
2023/07/20 10:07:35;;;;;;;7.60;2.15;;;;;;;21.69;43.58;96169.56;5092887;28;20552;-74
2023/07/20 10:10:04;;;;;;;10.13;2.40;;;;;;;21.74;42.66;96171.16;5094053;28;20052;-74
2023/07/20 10:12:32;;;;;;;15.95;2.50;;;;;;;21.74;42.94;96176.69;5114629;27;20039;-74
2023/07/20 10:15:11;;;;;;;11.02;2.38;;;;;;;21.75;44.70;96172.72;5106227;27;20043;-74
2023/07/20 10:17:49;;;;;;;2.65;1.45;;;;;;;21.81;41.58;96171.16;5095961;28;20040;-74
2023/07/20 10:20:21;;;;;;;2.63;1.40;;;;;;;21.72;44.12;96162.44;5104544;27;20036;-73
2023/07/20 10:22:52;;;;;;;14.73;1.95;;;;;;;21.73;43.45;96169.56;5115839;27;20040;-73
2023/07/20 10:25:19;;;;;;;4.55;1.83;;;;;;;21.69;43.47;96163.22;5108625;28;20036;-74
2023/07/20 10:27:46;;;;;;;2.45;1.40;;;;;;;21.96;43.03;96167.19;5098954;28;20475;-73
2023/07/20 10:30:14;;;;;;;4.47;1.67;;;;;;;22.39;43.13;96156.88;5097584;28;20044;-74
2023/07/20 10:32:42;;;;;;;3.17;1.38;;;;;;;22.49;41.93;96157.25;5096571;28;20040;-74
2023/07/20 10:35:14;;;;;;;2.72;1.58;;;;;;;22.64;42.11;96158.78;5108051;27;20071;-74
2023/07/20 10:37:49;;;;;;;4.82;1.73;;;;;;;22.80;40.47;96161.09;5104671;28;20094;-73
2023/07/20 10:40:30;;;;;;;3.05;1.50;;;;;;;22.64;40.40;96167.91;5095238;27;20068;-73
2023/07/20 10:43:01;;;;;;;4.18;1.60;;;;;;;22.63;41.85;96158.00;5106913;27;20051;-74
2023/07/20 10:45:35;;;;;;;3.38;1.60;;;;;;;22.29;41.53;96156.88;5099031;28;20055;-74
2023/07/20 10:48:04;;;;;;;5.85;1.70;;;;;;;22.10;42.38;96158.91;5099302;28;20036;-75
2023/07/20 10:50:31;;;;;;;4.18;2.03;;;;;;;21.96;43.06;96163.63;5098849;28;20070;-73
2023/07/20 10:53:11;;;;;;;3.13;1.70;;;;;;;22.23;40.94;96158.47;5099021;28;20048;-74
2023/07/20 10:55:38;;;;;;;3.65;1.67;;;;;;;22.10;41.46;96167.22;5095352;28;20070;-73
2023/07/20 10:58:09;;;;;;;4.88;1.70;;;;;;;22.05;42.06;96159.28;5101754;27;20043;-74
2023/07/20 11:00:36;;;;;;;5.35;1.45;;;;;;;21.94;42.23;96158.50;5098445;28;20044;-74
2023/07/20 11:03:03;;;;;;;3.05;1.30;;;;;;;22.00;42.74;96156.91;5091327;28;20047;-75
2023/07/20 11:05:37;;;;;;;4.22;1.80;;;;;;;21.98;41.72;96159.28;5091986;28;20120;-73
2023/07/20 11:08:12;;;;;;;4.18;1.80;;;;;;;21.89;43.25;96161.66;5091402;28;20504;-74
2023/07/20 11:10:38;;;;;;;3.83;1.45;;;;;;;22.02;43.58;96148.97;5091644;28;20048;-73
2023/07/20 11:13:22;;;;;;;5.78;1.52;;;;;;;22.07;43.09;96156.09;5092595;28;20094;-74
2023/07/20 11:16:02;;;;;;;3.63;1.85;;;;;;;22.11;43.46;96146.63;5096781;28;20487;-74
2023/07/20 11:18:30;;;;;;;4.07;1.77;;;;;;;22.14;42.85;96147.81;5105955;28;20036;-73
2023/07/20 11:20:57;;;;;;;3.42;1.52;;;;;;;22.20;44.26;96142.66;5097133;28;20044;-73
2023/07/20 11:23:25;;;;;;;3.80;1.58;;;;;;;22.33;43.85;96146.56;5091643;28;20040;-73
2023/07/20 11:25:51;;;;;;;3.15;2.00;;;;;;;22.26;43.17;96136.28;5100660;27;20042;-73
2023/07/20 11:28:18;;;;;;;3.30;1.70;;;;;;;22.22;42.12;96135.50;5101936;28;20048;-73
2023/07/20 11:30:44;;;;;;;11.13;2.50;;;;;;;22.28;44.39;96138.66;5099127;28;20062;-74
2023/07/20 11:33:11;;;;;;;5.55;1.60;;;;;;;22.33;43.75;96130.72;5103753;28;20388;-74
2023/07/20 11:35:43;;;;;;;6.05;1.73;;;;;;;22.47;41.85;96134.66;5095937;28;20040;-74
2023/07/20 11:38:09;;;;;;;4.15;1.70;;;;;;;22.38;42.39;96126.75;5096130;28;20047;-74